Time;durP1;ratioP1;P1;durP2;ratioP2;P2;SDS_P1;SDS_P2;PMS_P1;PMS_P2;Temp;Humidity;BMP_temperature;BMP_pressure;BME280_temperature;BME280_humidity;BME280_pressure;Samples;Min_cycle;Max_cycle;Signal;HPM_P1;HPM_P2
2021/06/23 00:00:25;;;;;;;0.00;0.00;;;;;;;25.52;62.65;98678.16;5065949;28;20035;-79
2021/06/23 00:02:51;;;;;;;0.00;0.00;;;;;;;25.44;62.76;98668.34;5084970;28;20029;-81
2021/06/23 00:05:17;;;;;;;0.00;0.00;;;;;;;25.40;62.92;98675.72;5071630;28;20026;-80
2021/06/23 00:07:43;;;;;;;0.00;0.00;;;;;;;25.35;62.79;98679.59;5093868;28;20039;-81
2021/06/23 00:10:09;;;;;;;0.00;0.00;;;;;;;25.25;63.00;98675.66;5066745;28;20040;-81
2021/06/23 00:12:35;;;;;;;0.00;0.00;;;;;;;25.20;63.19;98669.75;5086160;28;20032;-81
2021/06/23 00:15:02;;;;;;;0.00;0.00;;;;;;;25.15;63.22;98675.59;5075811;28;20034;-82
2021/06/23 00:17:28;;;;;;;0.00;0.00;;;;;;;25.07;63.73;98669.28;5088822;28;20097;-80
2021/06/23 00:19:54;;;;;;;0.00;0.00;;;;;;;25.05;63.82;98672.41;5072559;28;20578;-79
2021/06/23 00:22:19;;;;;;;0.10;0.10;;;;;;;24.98;64.42;98669.63;5061884;28;20119;-79
2021/06/23 00:24:44;;;;;;;0.00;0.00;;;;;;;24.92;64.66;98665.69;5085627;28;20564;-78
2021/06/23 00:27:10;;;;;;;0.00;0.00;;;;;;;24.90;64.89;98657.09;5092863;28;20119;-77
2021/06/23 00:29:35;;;;;;;0.00;0.00;;;;;;;24.86;65.04;98659.81;5093728;28;20111;-78
2021/06/23 00:32:03;;;;;;;0.00;0.00;;;;;;;24.81;65.11;98662.91;5087720;28;20027;-79
2021/06/23 00:34:30;;;;;;;;;;;;;;;24.78;65.16;98672.66;5078827;28;20081;-79
2021/06/23 00:36:56;;;;;;;0.00;0.00;;;;;;;24.72;65.11;98673.41;5075115;28;19974;-81
2021/06/23 00:39:22;;;;;;;0.30;0.30;;;;;;;24.70;65.60;98681.19;5075119;28;20463;-80
2021/06/23 00:41:47;;;;;;;0.00;0.00;;;;;;;24.66;65.60;98667.50;5089408;28;20115;-78
2021/06/23 00:44:15;;;;;;;0.00;0.00;;;;;;;24.62;65.81;98661.97;5083381;28;20116;-80
2021/06/23 00:46:41;;;;;;;0.20;0.20;;;;;;;24.60;65.93;98658.81;5065409;28;20048;-80
2021/06/23 00:49:07;;;;;;;0.00;0.00;;;;;;;24.59;66.10;98665.47;5079619;28;20028;-80
2021/06/23 00:51:34;;;;;;;0.00;0.00;;;;;;;24.59;66.15;98676.38;5062396;28;20459;-81
2021/06/23 00:53:59;;;;;;;0.00;0.00;;;;;;;24.56;66.58;98668.16;5055284;28;20407;-81
2021/06/23 00:56:32;;;;;;;0.00;0.00;;;;;;;24.49;66.65;98670.88;5060332;28;20031;-81
2021/06/23 00:58:58;;;;;;;0.00;0.00;;;;;;;24.46;66.81;98667.72;5073442;28;20031;-78
2021/06/23 01:01:24;;;;;;;0.00;0.00;;;;;;;24.40;66.58;98655.56;5087103;28;20029;-76
2021/06/23 01:03:51;;;;;;;0.00;0.00;;;;;;;24.41;66.75;98662.63;5076530;28;20032;-79
2021/06/23 01:06:17;;;;;;;0.00;0.00;;;;;;;24.36;66.90;98657.47;5072180;28;20040;-80
2021/06/23 01:08:43;;;;;;;0.00;0.00;;;;;;;24.35;67.10;98657.84;5073013;28;20048;-80
2021/06/23 01:11:08;;;;;;;0.00;0.00;;;;;;;24.33;67.06;98660.19;5074575;28;20035;-77
2021/06/23 01:13:49;;;;;;;0.00;0.00;;;;;;;24.29;67.07;98655.47;5074202;28;20400;-78
2021/06/23 01:16:16;;;;;;;0.00;0.00;;;;;;;24.28;67.16;98662.09;5078116;28;20046;-78
2021/06/23 01:18:41;;;;;;;0.00;0.00;;;;;;;24.22;67.58;98673.78;5079989;28;20148;-78
2021/06/23 01:21:08;;;;;;;0.00;0.00;;;;;;;24.12;67.92;98669.75;5062064;28;20040;-77
2021/06/23 01:23:34;;;;;;;0.13;0.13;;;;;;;24.10;68.30;98674.81;5077128;28;20540;-78
2021/06/23 01:26:00;;;;;;;0.35;0.35;;;;;;;23.92;69.00;98671.88;5092800;28;20036;-82
2021/06/23 01:28:26;;;;;;;0.20;0.20;;;;;;;23.75;69.96;98674.06;5060793;28;20048;-85
2021/06/23 01:30:55;;;;;;;0.25;0.25;;;;;;;23.59;70.79;98677.00;5073200;28;20490;-80
2021/06/23 01:33:21;;;;;;;0.03;0.03;;;;;;;23.47;71.19;98682.72;5091585;28;20484;-77
2021/06/23 01:35:47;;;;;;;0.00;0.00;;;;;;;23.44;71.51;98686.97;5073371;28;20043;-77
2021/06/23 01:38:13;;;;;;;0.20;0.20;;;;;;;23.42;71.72;98681.09;5072733;28;20475;-76
2021/06/23 01:40:38;;;;;;;0.10;0.10;;;;;;;23.45;71.71;98687.78;5072684;28;20056;-78
2021/06/23 01:43:08;;;;;;;0.22;0.22;;;;;;;23.44;71.73;98678.00;5068200;28;20067;-79
2021/06/23 01:45:34;;;;;;;0.35;0.10;;;;;;;23.37;72.07;98688.84;5092752;28;20494;-78
2021/06/23 01:48:00;;;;;;;0.30;0.30;;;;;;;23.29;72.23;98690.66;5073446;28;20028;-78
2021/06/23 01:50:25;;;;;;;0.00;0.00;;;;;;;23.22;72.30;98690.56;5074508;28;20059;-78
2021/06/23 01:52:51;;;;;;;0.32;0.32;;;;;;;23.07;73.19;98687.66;5081238;28;20123;-80
2021/06/23 01:55:29;;;;;;;0.10;0.10;;;;;;;22.93;73.55;98685.50;5062806;28;20039;-77
2021/06/23 01:58:01;;;;;;;0.00;0.00;;;;;;;22.83;73.93;98688.84;5072366;28;20024;-80
2021/06/23 02:00:49;;;;;;;0.00;0.00;;;;;;;22.74;74.46;98685.59;5055324;28;20181;-80
2021/06/23 02:03:27;;;;;;;0.00;0.00;;;;;;;22.66;74.89;98692.88;5072880;28;20104;-80
2021/06/23 02:06:00;;;;;;;;;;;;;;;22.61;75.24;98690.47;5092951;28;20040;-84
2021/06/23 02:08:36;;;;;;;0.03;0.03;;;;;;;22.53;75.55;98686.84;5074172;28;19908;-80
2021/06/23 02:11:18;;;;;;;0.00;0.00;;;;;;;22.55;75.70;98690.00;5087677;28;20114;-86
2021/06/23 02:14:02;;;;;;;0.20;0.20;;;;;;;22.63;75.57;98699.06;5072954;28;20085;-85
2021/06/23 02:16:29;;;;;;;0.03;0.03;;;;;;;22.67;75.36;98697.97;5091025;28;20020;-87
2021/06/23 02:19:06;;;;;;;0.00;0.00;;;;;;;22.76;75.17;98691.47;5070497;28;20028;-88
2021/06/23 02:21:39;;;;;;;0.08;0.08;;;;;;;22.81;74.92;98682.97;5068097;28;20028;-83
2021/06/23 02:24:07;;;;;;;0.13;0.13;;;;;;;22.89;74.76;98695.56;5079092;28;20031;-84
2021/06/23 02:26:34;;;;;;;0.00;0.00;;;;;;;22.95;74.44;98691.38;5061044;28;20492;-82
2021/06/23 02:29:00;;;;;;;0.00;0.00;;;;;;;23.02;74.18;98682.50;5072680;28;20426;-82
2021/06/23 02:31:27;;;;;;;0.00;0.00;;;;;;;23.08;73.59;98672.06;5072904;28;20088;-81
2021/06/23 02:33:54;;;;;;;0.03;0.03;;;;;;;23.10;73.01;98665.06;5073159;28;20028;-81
2021/06/23 02:36:21;;;;;;;0.00;0.00;;;;;;;23.15;72.71;98672.16;5071995;28;20402;-84
2021/06/23 02:38:47;;;;;;;0.20;0.20;;;;;;;23.14;72.61;98676.84;5089271;28;20132;-77
2021/06/23 02:41:13;;;;;;;0.00;0.00;;;;;;;23.16;72.41;98685.44;5078030;28;20053;-77
2021/06/23 02:43:39;;;;;;;0.05;0.05;;;;;;;23.20;72.26;98684.72;5089410;28;20034;-78
2021/06/23 02:46:04;;;;;;;0.00;0.00;;;;;;;23.18;72.03;98683.13;5076010;28;20021;-78
2021/06/23 02:48:30;;;;;;;0.00;0.00;;;;;;;23.19;71.64;98678.47;5045645;28;20032;-78
2021/06/23 02:51:02;;;;;;;0.10;0.10;;;;;;;23.22;71.48;98682.38;5088520;28;20547;-78
2021/06/23 02:53:29;;;;;;;0.10;0.10;;;;;;;23.23;71.38;98681.22;5089580;28;20031;-78
2021/06/23 02:55:56;;;;;;;0.00;0.00;;;;;;;23.22;71.19;98682.38;5062779;28;20024;-81
2021/06/23 02:58:22;;;;;;;0.10;0.10;;;;;;;23.23;70.97;98687.50;5077460;28;20090;-84
2021/06/23 03:00:48;;;;;;;0.10;0.10;;;;;;;23.25;71.06;98678.94;5086776;28;20024;-88
2021/06/23 03:03:14;;;;;;;0.00;0.00;;;;;;;23.28;70.88;98678.22;5066658;28;20431;-90
2021/06/23 03:05:40;;;;;;;0.00;0.00;;;;;;;23.30;70.91;98678.59;5052932;28;20051;-82
2021/06/23 03:08:07;;;;;;;0.03;0.03;;;;;;;23.34;70.88;98684.91;5085893;28;20106;-80
2021/06/23 03:10:32;;;;;;;0.00;0.00;;;;;;;23.31;70.81;98693.81;5081957;28;20039;-80
2021/06/23 03:12:58;;;;;;;0.00;0.00;;;;;;;23.28;70.99;98694.56;5053096;28;20029;-81
2021/06/23 03:15:23;;;;;;;0.00;0.00;;;;;;;23.28;70.76;98692.63;5053607;28;20101;-88
2021/06/23 03:17:49;;;;;;;0.05;0.05;;;;;;;23.25;70.98;98695.31;5069752;28;20039;-85
2021/06/23 03:20:15;;;;;;;0.30;0.30;;;;;;;23.26;70.95;98703.09;5062332;28;20437;-78
2021/06/23 03:22:40;;;;;;;0.00;0.00;;;;;;;23.28;71.07;98710.94;5083669;28;20032;-77
2021/06/23 03:25:06;;;;;;;0.00;0.00;;;;;;;23.29;71.18;98713.28;5084962;28;20067;-80
2021/06/23 03:27:32;;;;;;;0.00;0.00;;;;;;;23.38;71.05;98715.75;5077989;28;20025;-77
2021/06/23 03:29:57;;;;;;;0.00;0.00;;;;;;;23.45;70.83;98715.06;5076508;28;20120;-77
2021/06/23 03:32:23;;;;;;;0.47;0.20;;;;;;;23.59;70.57;98717.16;5087970;28;20118;-79
2021/06/23 03:34:48;;;;;;;0.05;0.05;;;;;;;23.72;70.11;98706.81;5089861;28;20035;-77
2021/06/23 03:37:15;;;;;;;0.00;0.00;;;;;;;23.86;69.56;98711.63;5078940;28;20058;-77
2021/06/23 03:39:40;;;;;;;0.00;0.00;;;;;;;24.01;69.29;98718.03;5094029;28;20654;-79
2021/06/23 03:42:06;;;;;;;0.03;0.03;;;;;;;24.18;68.87;98722.91;5074877;28;20046;-79
2021/06/23 03:44:32;;;;;;;0.22;0.22;;;;;;;24.35;68.45;98723.44;5057177;28;20119;-80
2021/06/23 03:46:57;;;;;;;0.00;0.00;;;;;;;24.54;67.99;98719.72;5058043;28;20050;-81
2021/06/23 03:49:23;;;;;;;0.00;0.00;;;;;;;24.78;66.85;98732.03;5085230;28;20548;-79
2021/06/23 03:51:49;;;;;;;0.00;0.00;;;;;;;25.00;66.29;98727.50;5076746;28;20029;-81
2021/06/23 03:54:15;;;;;;;0.10;0.10;;;;;;;25.23;65.58;98742.88;5070794;28;20054;-81
2021/06/23 03:56:43;;;;;;;0.00;0.00;;;;;;;25.46;64.43;98741.84;5087175;28;20059;-80
2021/06/23 03:59:08;;;;;;;0.00;0.00;;;;;;;25.73;63.95;98743.13;5075813;28;20062;-80
2021/06/23 04:01:34;;;;;;;0.63;0.57;;;;;;;25.91;63.06;98739.66;5052419;28;20025;-82
2021/06/23 04:03:59;;;;;;;0.00;0.00;;;;;;;26.06;62.61;98745.97;5074698;28;20032;-78
2021/06/23 04:06:26;;;;;;;0.00;0.00;;;;;;;26.33;62.06;98738.22;5080120;28;20066;-86
2021/06/23 04:08:52;;;;;;;0.00;0.00;;;;;;;26.61;61.11;98733.13;5067001;28;20033;-80
2021/06/23 04:11:17;;;;;;;0.10;0.10;;;;;;;26.92;60.36;98733.53;5070654;28;20642;-80
2021/06/23 04:13:42;;;;;;;0.00;0.00;;;;;;;27.25;59.23;98735.03;5076600;28;20091;-78
2021/06/23 04:16:08;;;;;;;0.00;0.00;;;;;;;27.57;58.12;98733.38;5071150;28;20852;-77
2021/06/23 04:18:33;;;;;;;0.00;0.00;;;;;;;27.92;57.46;98742.66;5074967;28;20050;-77
2021/06/23 04:20:59;;;;;;;0.00;0.00;;;;;;;28.21;56.53;98737.00;5076273;28;20162;-78
2021/06/23 04:23:24;;;;;;;0.00;0.00;;;;;;;28.51;55.73;98746.63;5075206;28;20060;-77
2021/06/23 04:25:50;;;;;;;0.10;0.10;;;;;;;28.79;54.42;98753.88;5089000;28;20040;-79
2021/06/23 04:28:15;;;;;;;0.10;0.10;;;;;;;29.06;54.11;98753.22;5089136;28;20020;-76
2021/06/23 04:30:41;;;;;;;0.00;0.00;;;;;;;29.30;53.09;98759.69;5070254;28;20028;-77
2021/06/23 04:33:06;;;;;;;0.40;0.15;;;;;;;29.58;52.72;98762.53;5069826;28;20056;-77
2021/06/23 04:35:32;;;;;;;0.00;0.00;;;;;;;29.89;52.27;98757.03;5073282;28;20483;-77
2021/06/23 04:37:57;;;;;;;0.00;0.00;;;;;;;30.17;50.88;98764.16;5073788;28;20373;-77
2021/06/23 04:40:23;;;;;;;0.20;0.20;;;;;;;30.35;50.06;98769.41;5073721;28;20395;-77
2021/06/23 04:42:48;;;;;;;0.00;0.00;;;;;;;30.45;50.05;98773.97;5073723;28;20021;-77
2021/06/23 04:45:14;;;;;;;0.00;0.00;;;;;;;30.57;49.62;98774.63;5073069;28;20115;-76
2021/06/23 04:47:40;;;;;;;0.05;0.05;;;;;;;30.64;49.65;98771.75;5073776;28;20023;-76
2021/06/23 04:50:07;;;;;;;0.10;0.10;;;;;;;30.66;49.62;98769.34;5073224;28;20047;-77
2021/06/23 04:52:34;;;;;;;0.00;0.00;;;;;;;30.71;48.94;98765.31;5073361;28;20025;-76
2021/06/23 04:54:59;;;;;;;0.20;0.20;;;;;;;30.71;49.11;98765.31;5073127;28;20077;-77
2021/06/23 04:57:24;;;;;;;0.10;0.10;;;;;;;30.75;48.35;98764.06;5073401;28;20025;-77
2021/06/23 04:59:50;;;;;;;0.22;0.22;;;;;;;30.79;48.65;98764.78;5073026;28;20095;-77
2021/06/23 05:02:16;;;;;;;0.03;0.03;;;;;;;30.91;48.48;98766.16;5073068;28;20039;-77
2021/06/23 05:04:42;;;;;;;0.17;0.17;;;;;;;31.06;47.94;98772.19;5073310;28;20033;-76
2021/06/23 05:07:08;;;;;;;0.20;0.20;;;;;;;31.28;47.91;98774.59;5072664;28;20020;-76
2021/06/23 05:09:37;;;;;;;0.00;0.00;;;;;;;31.55;47.64;98773.69;5073128;28;20029;-77
2021/06/23 05:12:03;;;;;;;0.00;0.00;;;;;;;31.74;46.82;98774.91;5073290;28;20043;-77
2021/06/23 05:14:29;;;;;;;0.10;0.10;;;;;;;32.00;46.67;98778.69;5073303;28;20028;-75
2021/06/23 05:16:56;;;;;;;0.00;0.00;;;;;;;32.21;45.98;98771.94;5072938;28;20395;-77
2021/06/23 05:19:21;;;;;;;0.43;0.22;;;;;;;32.39;45.47;98773.50;5072943;28;20044;-76
2021/06/23 05:21:47;;;;;;;0.00;0.00;;;;;;;32.64;45.42;98777.66;5072801;28;20025;-77
2021/06/23 05:24:12;;;;;;;0.00;0.00;;;;;;;32.77;44.25;98780.53;5072466;28;20072;-77
2021/06/23 05:26:38;;;;;;;0.63;0.40;;;;;;;32.70;44.20;98775.91;5073071;28;20021;-76
2021/06/23 05:29:04;;;;;;;0.38;0.38;;;;;;;32.68;44.03;98786.66;5072626;28;20028;-76
2021/06/23 05:31:30;;;;;;;0.22;0.22;;;;;;;32.80;44.10;98788.75;5072934;28;20162;-75
2021/06/23 05:33:56;;;;;;;0.20;0.20;;;;;;;32.66;45.12;98789.84;5072549;28;20395;-76
2021/06/23 05:36:21;;;;;;;0.10;0.10;;;;;;;32.89;45.16;98788.91;5072517;28;20021;-75
2021/06/23 05:38:47;;;;;;;0.00;0.00;;;;;;;33.24;44.85;98788.44;5072738;28;20105;-75
2021/06/23 05:41:13;;;;;;;0.03;0.03;;;;;;;33.52;43.47;98781.34;5072213;28;20110;-75
2021/06/23 05:43:38;;;;;;;0.00;0.00;;;;;;;33.80;42.78;98792.03;5072664;28;20047;-77
2021/06/23 05:46:04;;;;;;;0.00;0.00;;;;;;;34.18;42.03;98790.56;5072593;28;20422;-75
2021/06/23 05:48:29;;;;;;;0.10;0.10;;;;;;;34.46;41.21;98788.91;5072543;28;20182;-75
2021/06/23 05:50:55;;;;;;;0.10;0.10;;;;;;;34.85;40.42;98789.63;5072290;28;20024;-76
2021/06/23 05:53:20;;;;;;;0.00;0.00;;;;;;;35.18;39.69;98794.88;5072674;28;20037;-75
2021/06/23 05:55:46;;;;;;;0.00;0.00;;;;;;;35.53;38.88;98797.63;5072363;28;20020;-77
2021/06/23 05:58:11;;;;;;;0.00;0.00;;;;;;;35.66;38.08;98796.78;5072155;28;20024;-76
2021/06/23 06:00:37;;;;;;;0.00;0.00;;;;;;;35.82;37.63;98796.56;5072293;28;20027;-76
2021/06/23 06:03:05;;;;;;;1.02;0.52;;;;;;;35.87;37.69;98789.63;5071865;28;20032;-77
2021/06/23 06:05:30;;;;;;;0.10;0.10;;;;;;;36.02;37.44;98799.03;5071668;28;20423;-76
2021/06/23 06:07:56;;;;;;;0.10;0.10;;;;;;;36.32;36.88;98804.25;5071897;28;20020;-77
2021/06/23 06:10:22;;;;;;;0.10;0.10;;;;;;;36.58;36.04;98802.00;5071765;28;20025;-77
2021/06/23 06:12:47;;;;;;;0.20;0.20;;;;;;;36.79;35.25;98808.72;5072005;28;20024;-76
2021/06/23 06:15:13;;;;;;;0.00;0.00;;;;;;;36.89;35.20;98805.97;5071735;28;20156;-76
2021/06/23 06:17:39;;;;;;;0.20;0.20;;;;;;;37.06;34.96;98803.66;5071568;28;20051;-76
2021/06/23 06:20:05;;;;;;;0.00;0.00;;;;;;;37.25;34.59;98808.00;5071656;28;20526;-76
2021/06/23 06:22:32;;;;;;;0.08;0.08;;;;;;;37.34;34.56;98801.63;5072027;28;20031;-76
2021/06/23 06:24:57;;;;;;;1.10;0.10;;;;;;;37.48;34.38;98805.84;5071224;28;20052;-76
2021/06/23 06:27:23;;;;;;;0.10;0.10;;;;;;;37.45;34.64;98806.78;5071675;28;20025;-76
2021/06/23 06:29:48;;;;;;;0.00;0.00;;;;;;;37.27;34.84;98801.94;5071668;28;20078;-75
2021/06/23 06:32:14;;;;;;;0.00;0.00;;;;;;;37.24;34.73;98814.81;5071689;28;20085;-76
2021/06/23 06:34:39;;;;;;;0.20;0.20;;;;;;;37.11;34.72;98800.25;5071634;28;20028;-76
2021/06/23 06:37:04;;;;;;;0.03;0.03;;;;;;;36.90;35.26;98805.50;5071395;28;20028;-76
2021/06/23 06:39:30;;;;;;;0.03;0.03;;;;;;;36.84;35.74;98810.09;5071680;28;20220;-76
2021/06/23 06:41:55;;;;;;;0.15;0.15;;;;;;;36.79;35.68;98805.16;5071491;28;20032;-76
2021/06/23 06:44:21;;;;;;;0.20;0.20;;;;;;;36.77;35.88;98813.19;5071360;28;20024;-76
2021/06/23 06:46:47;;;;;;;0.90;0.85;;;;;;;36.70;35.56;98803.91;5071416;28;20024;-76
2021/06/23 06:49:13;;;;;;;0.00;0.00;;;;;;;36.61;35.93;98817.03;5070904;28;20070;-76
2021/06/23 06:51:38;;;;;;;0.08;0.08;;;;;;;36.31;35.97;98811.03;5071303;28;20028;-75
2021/06/23 06:54:04;;;;;;;0.10;0.10;;;;;;;36.11;36.43;98815.00;5070981;28;20067;-76
2021/06/23 06:56:29;;;;;;;0.00;0.00;;;;;;;35.94;37.06;98808.88;5070812;28;20039;-76
2021/06/23 06:58:55;;;;;;;0.38;0.38;;;;;;;35.77;36.89;98813.84;5071043;28;20036;-76
2021/06/23 07:01:20;;;;;;;0.00;0.00;;;;;;;35.49;36.99;98821.25;5070927;28;20491;-75
2021/06/23 07:03:46;;;;;;;0.20;0.20;;;;;;;35.30;37.68;98807.16;5071088;28;20491;-76
2021/06/23 07:06:11;;;;;;;0.75;0.75;;;;;;;35.03;38.15;98800.13;5070836;28;20558;-76
2021/06/23 07:08:36;;;;;;;0.52;0.52;;;;;;;34.75;38.54;98799.06;5071080;28;20095;-76
2021/06/23 07:11:02;;;;;;;0.90;0.52;;;;;;;34.62;38.67;98805.44;5070594;28;20060;-76
2021/06/23 07:13:27;;;;;;;0.10;0.10;;;;;;;34.54;39.04;98804.09;5053125;28;20021;-76
2021/06/23 07:15:53;;;;;;;1.65;0.47;;;;;;;34.39;39.39;98805.81;5070743;28;20166;-76
2021/06/23 07:18:18;;;;;;;0.40;0.40;;;;;;;34.29;39.46;98800.09;5070492;28;20016;-76
2021/06/23 07:20:44;;;;;;;0.45;0.45;;;;;;;34.18;40.20;98805.22;5070537;28;20488;-76
2021/06/23 07:23:09;;;;;;;0.30;0.30;;;;;;;33.93;40.31;98800.41;5070497;28;20107;-76
2021/06/23 07:25:34;;;;;;;0.10;0.10;;;;;;;33.87;40.17;98797.41;5070845;28;20056;-76
2021/06/23 07:28:01;;;;;;;0.40;0.40;;;;;;;33.62;40.88;98798.88;5070853;28;20033;-76
2021/06/23 07:30:27;;;;;;;0.22;0.22;;;;;;;33.46;40.84;98801.72;5052785;28;20444;-76
2021/06/23 07:32:59;;;;;;;2.23;0.77;;;;;;;33.27;41.93;98812.47;5070952;28;20625;-75
2021/06/23 07:38:13;;;;;;;0.28;0.28;;;;;;;33.20;41.85;98801.59;5070416;28;20044;-75
2021/06/23 07:43:11;;;;;;;0.05;0.05;;;;;;;33.18;42.01;98804.78;5070407;28;20037;-75
2021/06/23 07:45:37;;;;;;;0.15;0.15;;;;;;;33.16;41.14;98809.22;5070779;28;20025;-75
2021/06/23 07:48:03;;;;;;;0.60;0.60;;;;;;;33.05;41.85;98815.03;5070527;28;20085;-75
2021/06/23 07:50:36;;;;;;;0.47;0.47;;;;;;;32.97;42.10;98817.22;5070572;28;20021;-75
2021/06/23 08:09:47;;;;;;;0.20;0.20;;;;;;;32.53;43.66;98827.72;5072899;28;20546;-76
2021/06/23 08:12:23;;;;;;;3.00;0.75;;;;;;;32.52;43.10;98831.72;5074045;28;20036;-76
2021/06/23 08:14:49;;;;;;;1.08;0.80;;;;;;;32.61;44.01;98839.44;5074201;28;20028;-77
2021/06/23 08:17:14;;;;;;;0.00;0.00;;;;;;;32.70;43.14;98829.31;5073624;28;20028;-76
2021/06/23 08:19:40;;;;;;;0.40;0.40;;;;;;;32.78;42.57;98827.19;5072924;28;20407;-77
2021/06/23 08:22:05;;;;;;;0.20;0.20;;;;;;;32.81;41.69;98834.63;5073940;28;20035;-77
2021/06/23 08:24:31;;;;;;;1.10;0.60;;;;;;;32.84;42.32;98821.91;5073992;28;20044;-77
2021/06/23 08:26:56;;;;;;;0.10;0.10;;;;;;;32.89;40.98;98826.91;5073965;28;20036;-76
2021/06/23 08:29:21;;;;;;;0.10;0.10;;;;;;;32.93;41.32;98822.06;5073602;28;20042;-76
2021/06/23 08:31:47;;;;;;;0.45;0.30;;;;;;;32.95;41.21;98822.41;5073499;28;20023;-76
2021/06/23 08:34:13;;;;;;;1.02;0.60;;;;;;;32.97;41.68;98817.22;5073390;28;20108;-76
2021/06/23 08:36:38;;;;;;;0.15;0.15;;;;;;;32.97;41.77;98817.22;5073507;28;20024;-76
2021/06/23 08:39:04;;;;;;;0.10;0.10;;;;;;;32.95;42.03;98827.19;5073375;28;20029;-76
2021/06/23 08:41:30;;;;;;;0.57;0.55;;;;;;;32.96;42.86;98821.19;5073594;28;20016;-76
2021/06/23 08:43:57;;;;;;;0.70;0.20;;;;;;;32.99;42.07;98819.56;5073770;28;20403;-76
2021/06/23 08:46:23;;;;;;;1.88;1.30;;;;;;;33.06;41.91;98813.84;5073612;28;20033;-76
2021/06/23 08:48:49;;;;;;;0.05;0.05;;;;;;;33.10;42.14;98833.13;5073708;28;20071;-76
2021/06/23 08:51:15;;;;;;;1.95;1.27;;;;;;;33.20;40.80;98824.53;5073429;28;20048;-76
2021/06/23 08:53:41;;;;;;;0.08;0.08;;;;;;;33.26;41.04;98826.78;5073295;28;20207;-76
2021/06/23 08:56:07;;;;;;;1.42;0.73;;;;;;;33.35;41.38;98824.97;5073314;28;20052;-76
2021/06/23 08:58:33;;;;;;;0.00;0.00;;;;;;;33.39;40.80;98824.09;5073565;28;20380;-76
2021/06/23 09:00:59;;;;;;;0.00;0.00;;;;;;;33.46;40.36;98819.13;5055567;28;20386;-76
2021/06/23 09:03:25;;;;;;;0.32;0.32;;;;;;;33.49;40.23;98817.47;5073257;28;20029;-76
2021/06/23 09:05:56;;;;;;;0.00;0.00;;;;;;;33.54;41.24;98825.25;5073489;28;20601;-76
2021/06/23 09:08:34;;;;;;;0.00;0.00;;;;;;;33.64;41.22;98815.06;5073306;28;20483;-76
2021/06/23 09:11:01;;;;;;;0.00;0.00;;;;;;;33.64;40.91;98813.09;5073353;28;20082;-76
2021/06/23 09:13:28;;;;;;;0.15;0.15;;;;;;;33.64;40.79;98813.09;5073041;28;20039;-76
2021/06/23 09:15:58;;;;;;;0.28;0.28;;;;;;;33.60;39.94;98812.41;5073230;28;20115;-76
2021/06/23 09:18:29;;;;;;;0.00;0.00;;;;;;;33.58;41.59;98812.09;5072985;28;20040;-76
2021/06/23 09:20:58;;;;;;;0.13;0.13;;;;;;;33.51;39.40;98804.72;5072693;28;20031;-77
2021/06/23 09:23:36;;;;;;;0.40;0.38;;;;;;;33.42;40.52;98804.56;5072732;28;20032;-76
2021/06/23 09:26:35;;;;;;;0.30;0.30;;;;;;;33.46;40.17;98807.25;5073052;28;20102;-74
2021/06/23 09:29:13;;;;;;;0.00;0.00;;;;;;;33.41;40.72;98800.28;5072654;28;20056;-74
2021/06/23 09:32:02;;;;;;;0.47;0.47;;;;;;;33.36;41.02;98796.03;5073010;28;20024;-75
2021/06/23 09:34:33;;;;;;;0.10;0.10;;;;;;;33.40;41.15;98795.94;5072366;28;20024;-77
2021/06/23 09:36:59;;;;;;;0.17;0.17;;;;;;;33.42;40.23;98785.19;5072717;28;20056;-74
2021/06/23 09:39:28;;;;;;;0.38;0.38;;;;;;;33.47;39.95;98789.41;5072467;28;20030;-75
2021/06/23 09:41:54;;;;;;;0.08;0.08;;;;;;;33.54;39.88;98778.13;5054804;28;20116;-74
2021/06/23 09:44:22;;;;;;;0.10;0.10;;;;;;;33.65;40.36;98786.91;5072105;28;20530;-75
2021/06/23 09:46:49;;;;;;;1.08;0.35;;;;;;;33.75;40.39;98782.28;5072528;28;20290;-77
2021/06/23 09:49:15;;;;;;;0.10;0.10;;;;;;;33.84;40.09;98787.22;5072105;28;20641;-76
2021/06/23 09:51:59;;;;;;;0.00;0.00;;;;;;;33.82;38.57;98784.81;5072612;28;20052;-76
2021/06/23 09:54:30;;;;;;;0.22;0.22;;;;;;;33.85;39.35;98791.53;5072082;28;20024;-74
2021/06/23 09:57:17;;;;;;;0.10;0.10;;;;;;;33.91;38.95;98788.97;5072364;28;20028;-75
2021/06/23 09:59:49;;;;;;;0.00;0.00;;;;;;;33.92;38.72;98782.22;5072101;28;20082;-77
2021/06/23 10:02:44;;;;;;;0.25;0.25;;;;;;;33.93;39.10;98767.91;5072018;28;20040;-77
2021/06/23 10:05:18;;;;;;;0.00;0.00;;;;;;;33.91;38.40;98769.56;5058550;28;20051;-77
2021/06/23 10:07:49;;;;;;;0.38;0.32;;;;;;;33.92;38.75;98763.56;5072415;28;20055;-77
2021/06/23 10:10:22;;;;;;;0.00;0.00;;;;;;;33.87;39.70;98766.91;5071897;28;20032;-75
2021/06/23 10:12:49;;;;;;;1.48;0.95;;;;;;;33.84;38.98;98757.47;5071950;28;20020;-75
2021/06/23 10:15:15;;;;;;;;;;;;;;;33.86;39.42;98745.16;5072136;28;20468;-75
2021/06/23 10:17:42;;;;;;;0.20;0.20;;;;;;;33.87;39.19;98753.03;5071994;28;19912;-75
2021/06/23 10:20:09;;;;;;;0.10;0.10;;;;;;;33.85;37.67;98749.94;5071674;28;20507;-76
2021/06/23 10:22:35;;;;;;;0.95;0.95;;;;;;;33.74;38.30;98743.88;5071851;28;20471;-76
2021/06/23 10:25:07;;;;;;;0.45;0.45;;;;;;;33.72;37.53;98736.03;5071599;28;20044;-76
2021/06/23 10:27:34;;;;;;;0.10;0.10;;;;;;;33.71;38.80;98744.78;5070818;28;20509;-76
2021/06/23 10:30:00;;;;;;;0.20;0.20;;;;;;;33.67;38.18;98748.44;5071616;28;20059;-75
2021/06/23 10:32:27;;;;;;;0.28;0.28;;;;;;;33.72;38.51;98747.13;5070363;28;20046;-75
2021/06/23 10:34:53;;;;;;;0.15;0.15;;;;;;;33.62;38.38;98729.56;5071592;28;20539;-76
2021/06/23 10:37:20;;;;;;;0.08;0.08;;;;;;;33.65;37.93;98744.53;5071399;28;20127;-75
2021/06/23 10:39:46;;;;;;;;;;;;;;;33.68;39.44;98733.34;5071871;28;20036;-75
2021/06/23 10:42:12;;;;;;;0.50;0.50;;;;;;;33.67;39.38;98736.56;5071233;28;19915;-75
2021/06/23 10:44:47;;;;;;;0.35;0.35;;;;;;;33.74;38.02;98743.88;5071186;28;20392;-76
2021/06/23 10:47:34;;;;;;;1.17;0.22;;;;;;;33.73;37.74;98754.22;5071242;28;20211;-75
2021/06/23 10:50:00;;;;;;;0.60;0.60;;;;;;;33.79;38.18;98746.91;5071054;28;20419;-75
2021/06/23 10:52:26;;;;;;;0.73;0.40;;;;;;;33.81;36.03;98754.78;5071052;28;20058;-74
2021/06/23 10:54:56;;;;;;;0.20;0.20;;;;;;;33.82;36.04;98750.78;5071354;28;20028;-75
2021/06/23 10:57:46;;;;;;;0.90;0.30;;;;;;;33.79;36.04;98740.56;5053094;28;20035;-75
2021/06/23 11:00:11;;;;;;;0.00;0.00;;;;;;;33.83;37.42;98752.38;5071138;28;20031;-75
2021/06/23 11:02:39;;;;;;;0.85;0.82;;;;;;;33.87;37.68;98746.72;5071211;28;20024;-74
2021/06/23 11:05:17;;;;;;;0.30;0.30;;;;;;;33.89;38.53;98747.06;5071183;28;20025;-74
2021/06/23 11:07:42;;;;;;;;;;;;;;;33.95;37.40;98748.81;5071655;28;20028;-74
2021/06/23 11:10:13;;;;;;;32.63;1.75;;;;;;;33.92;37.33;98754.47;5071148;28;20422;-75
2021/06/23 11:13:01;;;;;;;3.38;1.23;;;;;;;33.94;37.00;98750.03;5071086;28;20388;-74
2021/06/23 11:15:32;;;;;;;0.55;0.55;;;;;;;33.96;37.58;98738.50;5070768;28;20024;-75
2021/06/23 11:18:34;;;;;;;0.25;0.25;;;;;;;33.99;36.99;98735.59;5071036;28;20464;-74
2021/06/23 11:21:01;;;;;;;0.00;0.00;;;;;;;34.06;37.11;98745.72;5071111;28;20052;-75
2021/06/23 11:23:50;;;;;;;0.10;0.10;;;;;;;34.09;37.93;98744.06;5070704;28;20082;-75
2021/06/23 11:26:18;;;;;;;0.20;0.20;;;;;;;34.18;37.46;98737.84;5070865;28;20368;-75
2021/06/23 11:28:45;;;;;;;0.40;0.20;;;;;;;34.19;37.35;98729.06;5070868;28;20029;-75
2021/06/23 11:31:11;;;;;;;0.40;0.40;;;;;;;34.22;37.02;98733.72;5070707;28;20082;-75
2021/06/23 11:33:36;;;;;;;2.67;1.05;;;;;;;34.25;36.27;98727.28;5070564;28;20430;-75
2021/06/23 11:36:04;;;;;;;2.08;0.73;;;;;;;34.24;36.10;98731.28;5052917;28;20062;-75
2021/06/23 11:38:31;;;;;;;0.30;0.30;;;;;;;34.23;35.24;98726.16;5070607;28;20016;-76
2021/06/23 11:40:57;;;;;;;0.55;0.55;;;;;;;34.24;35.37;98736.84;5071114;28;20032;-76
2021/06/23 11:43:24;;;;;;;0.22;0.22;;;;;;;34.30;37.05;98734.25;5072805;28;20024;-75
2021/06/23 11:45:50;;;;;;;0.65;0.65;;;;;;;34.38;36.01;98729.31;5074945;28;20025;-76
2021/06/23 11:48:17;;;;;;;1.08;1.08;;;;;;;34.42;35.48;98733.50;5074384;28;20028;-75
2021/06/23 11:50:44;;;;;;;0.30;0.30;;;;;;;34.44;35.38;98727.50;5074867;28;20161;-75
2021/06/23 11:53:12;;;;;;;0.30;0.30;;;;;;;34.41;35.75;98728.41;5074804;28;20025;-75
2021/06/23 11:55:38;;;;;;;0.52;0.52;;;;;;;34.27;36.67;98727.59;5074154;28;20028;-76
2021/06/23 11:58:04;;;;;;;0.90;0.90;;;;;;;34.18;37.21;98724.75;5074741;28;20031;-76